sensor_id;sensor_type;location;lat;lon;timestamp;temperature;humidity
10678;DHT22;5387;48.722;9.110;2024-03-23T00:54:29;10.40;99.90
10678;DHT22;5387;48.722;9.110;2024-03-23T00:56:54;10.40;99.90
10678;DHT22;5387;48.722;9.110;2024-03-23T00:59:21;10.50;99.90
10678;DHT22;5387;48.722;9.110;2024-03-23T01:01:48;10.50;99.90
10678;DHT22;5387;48.722;9.110;2024-03-23T01:04:14;10.50;99.90
10678;DHT22;5387;48.722;9.110;2024-03-23T01:06:40;10.50;99.90
10678;DHT22;5387;48.722;9.110;2024-03-23T01:09:07;10.50;99.90
10678;DHT22;5387;48.722;9.110;2024-03-23T01:11:37;10.60;99.90
10678;DHT22;5387;48.722;9.110;2024-03-23T01:14:04;10.80;99.90
10678;DHT22;5387;48.722;9.110;2024-03-23T01:16:30;10.90;99.90
10678;DHT22;5387;48.722;9.110;2024-03-23T01:18:57;10.90;99.90
10678;DHT22;5387;48.722;9.110;2024-03-23T01:21:23;11.10;99.90
10678;DHT22;5387;48.722;9.110;2024-03-23T01:23:50;11.10;99.90
10678;DHT22;5387;48.722;9.110;2024-03-23T01:26:16;11.10;99.90
10678;DHT22;5387;48.722;9.110;2024-03-23T01:28:44;11.10;99.90
10678;DHT22;5387;48.722;9.110;2024-03-23T01:31:10;11.00;99.90
10678;DHT22;5387;48.722;9.110;2024-03-23T01:33:37;10.90;99.90
10678;DHT22;5387;48.722;9.110;2024-03-23T01:36:03;11.00;99.90
10678;DHT22;5387;48.722;9.110;2024-03-23T01:38:30;11.00;99.90
10678;DHT22;5387;48.722;9.110;2024-03-23T01:40:57;11.10;99.90
10678;DHT22;5387;48.722;9.110;2024-03-23T01:43:24;11.10;99.90
10678;DHT22;5387;48.722;9.110;2024-03-23T01:45:51;11.10;99.90
10678;DHT22;5387;48.722;9.110;2024-03-23T01:48:19;11.10;99.90
10678;DHT22;5387;48.722;9.110;2024-03-23T01:50:46;10.90;99.90
10678;DHT22;5387;48.722;9.110;2024-03-23T01:53:14;10.90;99.90
10678;DHT22;5387;48.722;9.110;2024-03-23T01:55:42;10.90;99.90
10678;DHT22;5387;48.722;9.110;2024-03-23T01:58:09;10.90;99.90
10678;DHT22;5387;48.722;9.110;2024-03-23T02:00:35;10.80;99.90
10678;DHT22;5387;48.722;9.110;2024-03-23T02:03:22;10.80;99.90
10678;DHT22;5387;48.722;9.110;2024-03-23T02:05:48;10.60;99.90
10678;DHT22;5387;48.722;9.110;2024-03-23T02:08:16;10.60;99.90
10678;DHT22;5387;48.722;9.110;2024-03-23T02:10:42;10.70;99.90
10678;DHT22;5387;48.722;9.110;2024-03-23T02:13:09;10.60;99.90
10678;DHT22;5387;48.722;9.110;2024-03-23T02:15:35;10.50;99.90
10678;DHT22;5387;48.722;9.110;2024-03-23T02:18:03;10.50;99.90
10678;DHT22;5387;48.722;9.110;2024-03-23T02:20:29;10.60;99.90
10678;DHT22;5387;48.722;9.110;2024-03-23T02:22:57;10.50;99.90
10678;DHT22;5387;48.722;9.110;2024-03-23T02:25:23;10.40;99.90
10678;DHT22;5387;48.722;9.110;2024-03-23T02:27:50;10.50;99.90
10678;DHT22;5387;48.722;9.110;2024-03-23T02:30:15;10.50;99.90
10678;DHT22;5387;48.722;9.110;2024-03-23T02:32:42;10.60;99.90
10678;DHT22;5387;48.722;9.110;2024-03-23T02:35:08;10.80;99.90
10678;DHT22;5387;48.722;9.110;2024-03-23T02:37:35;10.90;99.90
10678;DHT22;5387;48.722;9.110;2024-03-23T02:40:02;10.90;99.90
10678;DHT22;5387;48.722;9.110;2024-03-23T02:42:29;10.90;99.90
10678;DHT22;5387;48.722;9.110;2024-03-23T02:44:55;10.90;99.90
10678;DHT22;5387;48.722;9.110;2024-03-23T02:47:22;10.90;99.90
10678;DHT22;5387;48.722;9.110;2024-03-23T02:49:48;10.90;99.90
10678;DHT22;5387;48.722;9.110;2024-03-23T02:52:14;10.90;99.90
10678;DHT22;5387;48.722;9.110;2024-03-23T02:54:40;10.90;99.90
10678;DHT22;5387;48.722;9.110;2024-03-23T02:57:11;10.90;99.90
10678;DHT22;5387;48.722;9.110;2024-03-23T02:59:37;10.90;99.90
10678;DHT22;5387;48.722;9.110;2024-03-23T03:02:04;10.90;99.90
10678;DHT22;5387;48.722;9.110;2024-03-23T03:04:30;10.80;99.90
10678;DHT22;5387;48.722;9.110;2024-03-23T03:06:57;10.90;99.90
10678;DHT22;5387;48.722;9.110;2024-03-23T03:09:23;10.90;99.90
10678;DHT22;5387;48.722;9.110;2024-03-23T03:11:50;10.80;99.90
10678;DHT22;5387;48.722;9.110;2024-03-23T03:14:17;10.70;99.90
10678;DHT22;5387;48.722;9.110;2024-03-23T03:16:44;10.80;99.90
10678;DHT22;5387;48.722;9.110;2024-03-23T03:19:09;10.60;99.90
10678;DHT22;5387;48.722;9.110;2024-03-23T03:21:37;10.60;99.90
10678;DHT22;5387;48.722;9.110;2024-03-23T03:24:05;10.50;99.90
10678;DHT22;5387;48.722;9.110;2024-03-23T03:26:32;10.40;99.90
10678;DHT22;5387;48.722;9.110;2024-03-23T03:28:58;10.40;99.90
10678;DHT22;5387;48.722;9.110;2024-03-23T03:31:26;10.40;99.90
10678;DHT22;5387;48.722;9.110;2024-03-23T03:33:52;10.30;99.90
10678;DHT22;5387;48.722;9.110;2024-03-23T03:36:19;10.30;99.90
10678;DHT22;5387;48.722;9.110;2024-03-23T03:38:45;10.20;99.90
10678;DHT22;5387;48.722;9.110;2024-03-23T03:41:12;10.10;99.90
10678;DHT22;5387;48.722;9.110;2024-03-23T03:43:37;10.10;99.90
10678;DHT22;5387;48.722;9.110;2024-03-23T03:46:04;10.10;99.90
10678;DHT22;5387;48.722;9.110;2024-03-23T03:48:31;10.20;99.90
10678;DHT22;5387;48.722;9.110;2024-03-23T03:50:58;10.20;99.90
10678;DHT22;5387;48.722;9.110;2024-03-23T03:53:24;10.10;99.90
10678;DHT22;5387;48.722;9.110;2024-03-23T03:55:51;10.00;99.90
10678;DHT22;5387;48.722;9.110;2024-03-23T03:58:17;9.90;99.90
10678;DHT22;5387;48.722;9.110;2024-03-23T04:00:44;9.80;99.90
10678;DHT22;5387;48.722;9.110;2024-03-23T04:03:10;9.80;99.90
10678;DHT22;5387;48.722;9.110;2024-03-23T04:05:38;9.60;99.90
10678;DHT22;5387;48.722;9.110;2024-03-23T04:08:05;9.50;99.90
10678;DHT22;5387;48.722;9.110;2024-03-23T04:10:31;9.40;99.90
10678;DHT22;5387;48.722;9.110;2024-03-23T04:12:57;9.40;99.90
10678;DHT22;5387;48.722;9.110;2024-03-23T04:15:24;9.20;99.90
10678;DHT22;5387;48.722;9.110;2024-03-23T04:17:50;9.20;99.90
10678;DHT22;5387;48.722;9.110;2024-03-23T04:20:17;9.40;99.90
10678;DHT22;5387;48.722;9.110;2024-03-23T04:22:44;9.40;99.90
10678;DHT22;5387;48.722;9.110;2024-03-23T04:25:11;9.50;99.90
10678;DHT22;5387;48.722;9.110;2024-03-23T04:27:37;9.50;99.90
10678;DHT22;5387;48.722;9.110;2024-03-23T04:30:05;9.50;99.90
10678;DHT22;5387;48.722;9.110;2024-03-23T04:32:35;9.50;99.90
10678;DHT22;5387;48.722;9.110;2024-03-23T04:35:02;9.60;99.90
10678;DHT22;5387;48.722;9.110;2024-03-23T04:37:31;9.60;99.90
10678;DHT22;5387;48.722;9.110;2024-03-23T04:39:59;9.60;99.90
10678;DHT22;5387;48.722;9.110;2024-03-23T04:42:27;9.60;99.90
10678;DHT22;5387;48.722;9.110;2024-03-23T04:44:53;10.00;99.90
10678;DHT22;5387;48.722;9.110;2024-03-23T04:47:20;10.20;99.90
10678;DHT22;5387;48.722;9.110;2024-03-23T04:49:47;10.30;99.90
10678;DHT22;5387;48.722;9.110;2024-03-23T04:52:13;10.50;99.90
10678;DHT22;5387;48.722;9.110;2024-03-23T04:54:41;10.50;99.90
10678;DHT22;5387;48.722;9.110;2024-03-23T04:57:09;10.30;99.90
10678;DHT22;5387;48.722;9.110;2024-03-23T04:59:34;9.90;99.90
10678;DHT22;5387;48.722;9.110;2024-03-23T05:02:01;9.60;99.90
10678;DHT22;5387;48.722;9.110;2024-03-23T05:04:28;9.30;99.90
10678;DHT22;5387;48.722;9.110;2024-03-23T05:06:55;9.10;99.90
10678;DHT22;5387;48.722;9.110;2024-03-23T05:09:21;9.00;99.90
10678;DHT22;5387;48.722;9.110;2024-03-23T05:11:48;8.90;99.90
10678;DHT22;5387;48.722;9.110;2024-03-23T05:14:15;8.90;99.90
10678;DHT22;5387;48.722;9.110;2024-03-23T05:16:42;8.80;99.90
10678;DHT22;5387;48.722;9.110;2024-03-23T05:19:08;8.90;99.90
10678;DHT22;5387;48.722;9.110;2024-03-23T05:21:35;8.80;99.90
10678;DHT22;5387;48.722;9.110;2024-03-23T05:24:00;8.70;99.90
10678;DHT22;5387;48.722;9.110;2024-03-23T05:26:28;8.80;99.90
10678;DHT22;5387;48.722;9.110;2024-03-23T05:28:54;8.70;99.90
10678;DHT22;5387;48.722;9.110;2024-03-23T05:31:26;8.60;99.90
10678;DHT22;5387;48.722;9.110;2024-03-23T05:33:52;8.70;99.90
10678;DHT22;5387;48.722;9.110;2024-03-23T05:36:19;8.50;99.90
10678;DHT22;5387;48.722;9.110;2024-03-23T05:38:45;8.50;99.90
10678;DHT22;5387;48.722;9.110;2024-03-23T05:41:12;8.50;99.90
10678;DHT22;5387;48.722;9.110;2024-03-23T05:43:38;8.50;99.90
10678;DHT22;5387;48.722;9.110;2024-03-23T05:46:04;8.50;99.90
10678;DHT22;5387;48.722;9.110;2024-03-23T05:48:32;8.50;99.90
10678;DHT22;5387;48.722;9.110;2024-03-23T05:50:59;8.50;99.90
10678;DHT22;5387;48.722;9.110;2024-03-23T05:53:25;8.40;99.90
10678;DHT22;5387;48.722;9.110;2024-03-23T05:55:59;8.40;99.90
10678;DHT22;5387;48.722;9.110;2024-03-23T05:58:25;8.30;99.90
10678;DHT22;5387;48.722;9.110;2024-03-23T06:00:57;8.30;99.90
10678;DHT22;5387;48.722;9.110;2024-03-23T06:03:23;8.20;99.90
10678;DHT22;5387;48.722;9.110;2024-03-23T06:05:52;8.10;99.90
10678;DHT22;5387;48.722;9.110;2024-03-23T06:08:18;8.00;99.90
10678;DHT22;5387;48.722;9.110;2024-03-23T06:10:45;7.90;99.90
10678;DHT22;5387;48.722;9.110;2024-03-23T06:13:11;7.80;99.90
10678;DHT22;5387;48.722;9.110;2024-03-23T06:15:38;7.80;99.90
10678;DHT22;5387;48.722;9.110;2024-03-23T06:18:04;7.70;99.90
10678;DHT22;5387;48.722;9.110;2024-03-23T06:20:33;7.60;99.90
10678;DHT22;5387;48.722;9.110;2024-03-23T06:23:00;7.50;99.90
10678;DHT22;5387;48.722;9.110;2024-03-23T06:25:27;7.40;99.90
10678;DHT22;5387;48.722;9.110;2024-03-23T06:27:53;7.30;99.90
10678;DHT22;5387;48.722;9.110;2024-03-23T06:30:19;7.20;99.90
10678;DHT22;5387;48.722;9.110;2024-03-23T06:32:45;7.20;99.90
10678;DHT22;5387;48.722;9.110;2024-03-23T06:35:12;7.30;99.90
10678;DHT22;5387;48.722;9.110;2024-03-23T06:37:38;7.20;99.90
10678;DHT22;5387;48.722;9.110;2024-03-23T06:40:08;7.20;99.90
10678;DHT22;5387;48.722;9.110;2024-03-23T06:42:35;7.20;99.90
10678;DHT22;5387;48.722;9.110;2024-03-23T06:45:02;7.20;99.90
10678;DHT22;5387;48.722;9.110;2024-03-23T06:47:29;7.30;99.90
10678;DHT22;5387;48.722;9.110;2024-03-23T06:49:55;7.50;99.90
10678;DHT22;5387;48.722;9.110;2024-03-23T06:52:21;7.50;99.90
10678;DHT22;5387;48.722;9.110;2024-03-23T06:54:48;7.50;99.90
10678;DHT22;5387;48.722;9.110;2024-03-23T06:57:16;7.50;99.90
10678;DHT22;5387;48.722;9.110;2024-03-23T06:59:42;7.50;99.90
10678;DHT22;5387;48.722;9.110;2024-03-23T07:02:09;7.60;99.90
10678;DHT22;5387;48.722;9.110;2024-03-23T07:04:35;7.60;99.90
10678;DHT22;5387;48.722;9.110;2024-03-23T07:07:02;7.60;99.90
10678;DHT22;5387;48.722;9.110;2024-03-23T07:09:28;7.60;99.90
10678;DHT22;5387;48.722;9.110;2024-03-23T07:11:56;7.70;99.90
10678;DHT22;5387;48.722;9.110;2024-03-23T07:14:24;7.60;99.90
10678;DHT22;5387;48.722;9.110;2024-03-23T07:16:51;7.50;99.90
10678;DHT22;5387;48.722;9.110;2024-03-23T07:19:17;7.60;99.90
10678;DHT22;5387;48.722;9.110;2024-03-23T07:21:44;7.70;99.90
10678;DHT22;5387;48.722;9.110;2024-03-23T07:24:10;7.70;99.90
10678;DHT22;5387;48.722;9.110;2024-03-23T07:26:37;7.70;99.90
10678;DHT22;5387;48.722;9.110;2024-03-23T07:29:03;7.80;99.90
10678;DHT22;5387;48.722;9.110;2024-03-23T07:31:31;7.90;99.90
10678;DHT22;5387;48.722;9.110;2024-03-23T07:33:57;8.10;99.90
10678;DHT22;5387;48.722;9.110;2024-03-23T07:36:24;8.00;99.90
10678;DHT22;5387;48.722;9.110;2024-03-23T07:38:50;7.80;99.90
10678;DHT22;5387;48.722;9.110;2024-03-23T07:41:18;7.70;99.90
10678;DHT22;5387;48.722;9.110;2024-03-23T07:43:45;7.50;99.90
10678;DHT22;5387;48.722;9.110;2024-03-23T07:46:12;7.50;99.90
10678;DHT22;5387;48.722;9.110;2024-03-23T07:48:40;7.40;99.90
10678;DHT22;5387;48.722;9.110;2024-03-23T07:51:09;7.60;99.90
10678;DHT22;5387;48.722;9.110;2024-03-23T07:53:36;7.60;99.90
10678;DHT22;5387;48.722;9.110;2024-03-23T07:56:06;7.60;99.90
10678;DHT22;5387;48.722;9.110;2024-03-23T07:58:32;7.50;99.90
10678;DHT22;5387;48.722;9.110;2024-03-23T08:01:04;7.60;99.90
10678;DHT22;5387;48.722;9.110;2024-03-23T08:03:30;7.80;99.90
10678;DHT22;5387;48.722;9.110;2024-03-23T08:05:58;7.70;99.90
10678;DHT22;5387;48.722;9.110;2024-03-23T08:08:31;7.70;99.90
10678;DHT22;5387;48.722;9.110;2024-03-23T08:10:58;7.50;99.90
10678;DHT22;5387;48.722;9.110;2024-03-23T08:13:24;7.30;99.90
10678;DHT22;5387;48.722;9.110;2024-03-23T08:15:51;7.20;99.90
10678;DHT22;5387;48.722;9.110;2024-03-23T08:18:16;6.90;99.90
10678;DHT22;5387;48.722;9.110;2024-03-23T08:20:43;6.90;99.90
10678;DHT22;5387;48.722;9.110;2024-03-23T08:23:10;7.00;99.90
10678;DHT22;5387;48.722;9.110;2024-03-23T08:25:37;7.20;99.90
10678;DHT22;5387;48.722;9.110;2024-03-23T08:28:03;7.20;99.90
10678;DHT22;5387;48.722;9.110;2024-03-23T08:30:30;7.30;99.90
10678;DHT22;5387;48.722;9.110;2024-03-23T08:32:56;7.20;99.90
10678;DHT22;5387;48.722;9.110;2024-03-23T08:35:23;7.20;99.90
10678;DHT22;5387;48.722;9.110;2024-03-23T08:37:48;7.30;99.90
10678;DHT22;5387;48.722;9.110;2024-03-23T08:40:17;7.30;99.90
10678;DHT22;5387;48.722;9.110;2024-03-23T08:42:42;7.30;99.90
10678;DHT22;5387;48.722;9.110;2024-03-23T08:45:09;7.20;99.90
10678;DHT22;5387;48.722;9.110;2024-03-23T08:47:35;7.20;99.90
10678;DHT22;5387;48.722;9.110;2024-03-23T08:50:02;7.40;99.90
10678;DHT22;5387;48.722;9.110;2024-03-23T08:52:28;7.40;99.90
10678;DHT22;5387;48.722;9.110;2024-03-23T08:54:55;7.30;99.90
10678;DHT22;5387;48.722;9.110;2024-03-23T08:57:23;7.50;99.90
10678;DHT22;5387;48.722;9.110;2024-03-23T08:59:49;7.40;99.90
10678;DHT22;5387;48.722;9.110;2024-03-23T09:02:15;7.50;99.90
10678;DHT22;5387;48.722;9.110;2024-03-23T09:04:42;7.50;99.90
10678;DHT22;5387;48.722;9.110;2024-03-23T09:07:09;7.70;99.90
10678;DHT22;5387;48.722;9.110;2024-03-23T09:09:38;7.80;99.90
10678;DHT22;5387;48.722;9.110;2024-03-23T09:12:04;7.70;99.90
10678;DHT22;5387;48.722;9.110;2024-03-23T09:14:33;7.90;99.90
10678;DHT22;5387;48.722;9.110;2024-03-23T09:16:58;7.80;99.90
10678;DHT22;5387;48.722;9.110;2024-03-23T09:19:27;7.80;99.90
10678;DHT22;5387;48.722;9.110;2024-03-23T09:21:53;8.00;99.90
10678;DHT22;5387;48.722;9.110;2024-03-23T09:24:20;8.00;99.90
10678;DHT22;5387;48.722;9.110;2024-03-23T09:26:46;8.00;99.90
10678;DHT22;5387;48.722;9.110;2024-03-23T09:29:13;8.10;99.90
10678;DHT22;5387;48.722;9.110;2024-03-23T09:31:41;7.90;99.90
10678;DHT22;5387;48.722;9.110;2024-03-23T09:34:08;8.00;99.90
10678;DHT22;5387;48.722;9.110;2024-03-23T09:36:33;7.90;99.90
10678;DHT22;5387;48.722;9.110;2024-03-23T09:39:00;8.30;99.90
10678;DHT22;5387;48.722;9.110;2024-03-23T09:41:26;8.70;99.90
10678;DHT22;5387;48.722;9.110;2024-03-23T09:43:53;9.20;99.90
10678;DHT22;5387;48.722;9.110;2024-03-23T09:46:19;9.10;99.90
10678;DHT22;5387;48.722;9.110;2024-03-23T09:48:48;8.30;99.90
10678;DHT22;5387;48.722;9.110;2024-03-23T09:51:14;8.00;99.90
10678;DHT22;5387;48.722;9.110;2024-03-23T09:53:40;7.80;99.90
10678;DHT22;5387;48.722;9.110;2024-03-23T09:56:07;7.80;99.90
10678;DHT22;5387;48.722;9.110;2024-03-23T09:58:35;7.80;99.90
10678;DHT22;5387;48.722;9.110;2024-03-23T10:01:01;7.90;99.90
10678;DHT22;5387;48.722;9.110;2024-03-23T10:03:28;7.80;99.90
10678;DHT22;5387;48.722;9.110;2024-03-23T10:06:02;8.10;99.90
10678;DHT22;5387;48.722;9.110;2024-03-23T10:08:30;8.50;99.90
10678;DHT22;5387;48.722;9.110;2024-03-23T10:10:56;8.70;99.90
10678;DHT22;5387;48.722;9.110;2024-03-23T10:13:27;8.80;99.90
10678;DHT22;5387;48.722;9.110;2024-03-23T10:15:56;9.30;99.90
10678;DHT22;5387;48.722;9.110;2024-03-23T10:18:24;9.20;99.90
10678;DHT22;5387;48.722;9.110;2024-03-23T10:21:08;9.20;99.90
10678;DHT22;5387;48.722;9.110;2024-03-23T10:23:37;8.90;99.90
10678;DHT22;5387;48.722;9.110;2024-03-23T10:26:14;9.10;99.90
10678;DHT22;5387;48.722;9.110;2024-03-23T10:28:57;9.40;99.90
10678;DHT22;5387;48.722;9.110;2024-03-23T10:31:25;9.60;99.90
10678;DHT22;5387;48.722;9.110;2024-03-23T10:33:52;9.70;99.90
10678;DHT22;5387;48.722;9.110;2024-03-23T10:36:22;9.90;99.90
10678;DHT22;5387;48.722;9.110;2024-03-23T10:38:50;9.60;99.90
10678;DHT22;5387;48.722;9.110;2024-03-23T10:41:16;9.40;99.90
10678;DHT22;5387;48.722;9.110;2024-03-23T10:43:45;9.40;99.90
10678;DHT22;5387;48.722;9.110;2024-03-23T10:46:11;9.20;99.90
10678;DHT22;5387;48.722;9.110;2024-03-23T10:48:38;8.90;99.90
10678;DHT22;5387;48.722;9.110;2024-03-23T10:51:05;8.50;99.90
10678;DHT22;5387;48.722;9.110;2024-03-23T10:53:35;7.80;99.90
10678;DHT22;5387;48.722;9.110;2024-03-23T10:56:04;6.70;99.90
10678;DHT22;5387;48.722;9.110;2024-03-23T10:58:32;6.20;99.90
10678;DHT22;5387;48.722;9.110;2024-03-23T11:01:02;5.50;99.90
10678;DHT22;5387;48.722;9.110;2024-03-23T11:03:30;5.00;99.90
10678;DHT22;5387;48.722;9.110;2024-03-23T11:05:56;4.10;99.90
10678;DHT22;5387;48.722;9.110;2024-03-23T11:08:35;3.70;99.90
10678;DHT22;5387;48.722;9.110;2024-03-23T11:11:22;4.20;99.90
10678;DHT22;5387;48.722;9.110;2024-03-23T11:13:52;4.40;99.90
10678;DHT22;5387;48.722;9.110;2024-03-23T11:16:22;4.70;99.90
10678;DHT22;5387;48.722;9.110;2024-03-23T11:18:50;4.80;99.90
10678;DHT22;5387;48.722;9.110;2024-03-23T11:21:51;5.00;99.90
10678;DHT22;5387;48.722;9.110;2024-03-23T11:24:20;5.20;99.90
10678;DHT22;5387;48.722;9.110;2024-03-23T11:26:46;5.50;99.90
10678;DHT22;5387;48.722;9.110;2024-03-23T11:29:14;5.80;99.90
10678;DHT22;5387;48.722;9.110;2024-03-23T11:31:45;6.00;99.90
10678;DHT22;5387;48.722;9.110;2024-03-23T11:34:12;6.00;99.90
10678;DHT22;5387;48.722;9.110;2024-03-23T11:36:38;6.20;99.90
10678;DHT22;5387;48.722;9.110;2024-03-23T11:39:12;6.30;99.90
10678;DHT22;5387;48.722;9.110;2024-03-23T11:41:47;6.40;99.90
10678;DHT22;5387;48.722;9.110;2024-03-23T11:44:20;6.70;99.90
10678;DHT22;5387;48.722;9.110;2024-03-23T11:46:48;6.80;99.90
10678;DHT22;5387;48.722;9.110;2024-03-23T11:49:22;7.00;99.90
10678;DHT22;5387;48.722;9.110;2024-03-23T11:51:49;7.10;99.90
10678;DHT22;5387;48.722;9.110;2024-03-23T11:54:16;7.30;99.90
10678;DHT22;5387;48.722;9.110;2024-03-23T11:56:56;7.30;99.90
10678;DHT22;5387;48.722;9.110;2024-03-23T11:59:32;7.40;99.90
10678;DHT22;5387;48.722;9.110;2024-03-23T12:01:59;7.40;99.90
10678;DHT22;5387;48.722;9.110;2024-03-23T12:04:26;7.40;99.90
10678;DHT22;5387;48.722;9.110;2024-03-23T12:07:14;7.50;99.90
10678;DHT22;5387;48.722;9.110;2024-03-23T12:09:41;7.30;99.90
10678;DHT22;5387;48.722;9.110;2024-03-23T12:12:17;7.50;99.90
10678;DHT22;5387;48.722;9.110;2024-03-23T12:14:44;7.70;99.90
10678;DHT22;5387;48.722;9.110;2024-03-23T12:17:12;8.40;99.90
10678;DHT22;5387;48.722;9.110;2024-03-23T12:19:39;8.30;99.90
10678;DHT22;5387;48.722;9.110;2024-03-23T12:22:06;8.10;99.90
10678;DHT22;5387;48.722;9.110;2024-03-23T12:24:33;7.90;99.90
10678;DHT22;5387;48.722;9.110;2024-03-23T12:27:03;7.90;99.90
10678;DHT22;5387;48.722;9.110;2024-03-23T12:29:32;7.90;99.90
10678;DHT22;5387;48.722;9.110;2024-03-23T12:31:59;7.80;99.90
10678;DHT22;5387;48.722;9.110;2024-03-23T12:34:26;7.80;99.90
10678;DHT22;5387;48.722;9.110;2024-03-23T12:36:52;7.90;99.90
10678;DHT22;5387;48.722;9.110;2024-03-23T12:39:19;8.00;99.90
10678;DHT22;5387;48.722;9.110;2024-03-23T12:41:46;7.90;99.90
10678;DHT22;5387;48.722;9.110;2024-03-23T12:44:13;8.00;99.90
10678;DHT22;5387;48.722;9.110;2024-03-23T12:46:40;7.90;99.90
10678;DHT22;5387;48.722;9.110;2024-03-23T12:49:07;7.70;99.90
10678;DHT22;5387;48.722;9.110;2024-03-23T12:51:34;7.60;99.90
10678;DHT22;5387;48.722;9.110;2024-03-23T12:54:00;7.80;99.90
10678;DHT22;5387;48.722;9.110;2024-03-23T12:56:26;7.90;99.90
10678;DHT22;5387;48.722;9.110;2024-03-23T12:58:54;7.90;99.90
10678;DHT22;5387;48.722;9.110;2024-03-23T13:01:22;7.80;99.90
10678;DHT22;5387;48.722;9.110;2024-03-23T13:03:50;8.00;99.90
10678;DHT22;5387;48.722;9.110;2024-03-23T13:06:16;8.20;99.90
10678;DHT22;5387;48.722;9.110;2024-03-23T13:08:44;8.20;99.90
10678;DHT22;5387;48.722;9.110;2024-03-23T13:11:10;8.10;99.90
10678;DHT22;5387;48.722;9.110;2024-03-23T13:13:37;8.30;99.90
10678;DHT22;5387;48.722;9.110;2024-03-23T13:16:03;8.60;99.90
10678;DHT22;5387;48.722;9.110;2024-03-23T13:18:31;9.10;99.90
10678;DHT22;5387;48.722;9.110;2024-03-23T13:20:59;9.40;99.90
10678;DHT22;5387;48.722;9.110;2024-03-23T13:23:25;9.70;99.90
10678;DHT22;5387;48.722;9.110;2024-03-23T13:25:52;9.70;99.90
10678;DHT22;5387;48.722;9.110;2024-03-23T13:28:19;9.20;99.90
10678;DHT22;5387;48.722;9.110;2024-03-23T13:30:50;8.70;99.90
10678;DHT22;5387;48.722;9.110;2024-03-23T13:33:17;8.50;99.90
10678;DHT22;5387;48.722;9.110;2024-03-23T13:35:49;8.30;99.90
10678;DHT22;5387;48.722;9.110;2024-03-23T13:38:17;8.40;99.90
10678;DHT22;5387;48.722;9.110;2024-03-23T13:40:54;8.70;99.90
10678;DHT22;5387;48.722;9.110;2024-03-23T13:43:22;8.70;99.90
10678;DHT22;5387;48.722;9.110;2024-03-23T13:45:49;8.70;99.90
10678;DHT22;5387;48.722;9.110;2024-03-23T13:48:18;8.80;99.90
10678;DHT22;5387;48.722;9.110;2024-03-23T13:50:44;8.70;99.90
10678;DHT22;5387;48.722;9.110;2024-03-23T13:53:13;8.70;99.90
10678;DHT22;5387;48.722;9.110;2024-03-23T13:55:46;8.70;99.90
10678;DHT22;5387;48.722;9.110;2024-03-23T13:58:13;8.80;99.90
10678;DHT22;5387;48.722;9.110;2024-03-23T14:00:38;8.90;99.90
10678;DHT22;5387;48.722;9.110;2024-03-23T14:03:05;8.90;99.90
10678;DHT22;5387;48.722;9.110;2024-03-23T14:05:31;8.80;99.90
10678;DHT22;5387;48.722;9.110;2024-03-23T14:07:58;8.70;99.90
10678;DHT22;5387;48.722;9.110;2024-03-23T14:10:24;8.30;99.90
10678;DHT22;5387;48.722;9.110;2024-03-23T14:12:52;8.20;99.90
10678;DHT22;5387;48.722;9.110;2024-03-23T14:15:18;8.00;99.90
10678;DHT22;5387;48.722;9.110;2024-03-23T14:17:45;7.60;99.90
10678;DHT22;5387;48.722;9.110;2024-03-23T14:20:11;7.00;99.90
10678;DHT22;5387;48.722;9.110;2024-03-23T14:22:38;7.00;99.90
10678;DHT22;5387;48.722;9.110;2024-03-23T14:25:07;7.00;99.90
10678;DHT22;5387;48.722;9.110;2024-03-23T14:27:34;6.80;99.90
10678;DHT22;5387;48.722;9.110;2024-03-23T14:30:05;6.70;99.90
10678;DHT22;5387;48.722;9.110;2024-03-23T14:32:32;6.40;99.90
10678;DHT22;5387;48.722;9.110;2024-03-23T14:34:59;6.10;99.90
10678;DHT22;5387;48.722;9.110;2024-03-23T14:37:26;6.10;99.90
10678;DHT22;5387;48.722;9.110;2024-03-23T14:39:52;5.90;99.90
10678;DHT22;5387;48.722;9.110;2024-03-23T14:42:19;5.90;99.90
10678;DHT22;5387;48.722;9.110;2024-03-23T14:44:45;6.00;99.90
10678;DHT22;5387;48.722;9.110;2024-03-23T14:47:13;6.20;99.90
10678;DHT22;5387;48.722;9.110;2024-03-23T14:49:39;6.40;99.90
10678;DHT22;5387;48.722;9.110;2024-03-23T14:52:06;6.40;99.90
10678;DHT22;5387;48.722;9.110;2024-03-23T14:54:32;6.50;99.90
10678;DHT22;5387;48.722;9.110;2024-03-23T14:57:00;6.60;99.90
10678;DHT22;5387;48.722;9.110;2024-03-23T14:59:26;6.70;99.90
10678;DHT22;5387;48.722;9.110;2024-03-23T15:01:53;6.50;99.90
10678;DHT22;5387;48.722;9.110;2024-03-23T15:04:20;6.30;99.90
10678;DHT22;5387;48.722;9.110;2024-03-23T15:06:47;5.40;99.90
10678;DHT22;5387;48.722;9.110;2024-03-23T15:09:15;4.80;99.90
10678;DHT22;5387;48.722;9.110;2024-03-23T15:11:41;4.60;99.90
10678;DHT22;5387;48.722;9.110;2024-03-23T15:14:07;4.80;99.90
10678;DHT22;5387;48.722;9.110;2024-03-23T15:16:36;4.50;99.90
10678;DHT22;5387;48.722;9.110;2024-03-23T15:19:02;4.30;99.90
10678;DHT22;5387;48.722;9.110;2024-03-23T15:21:32;4.60;99.90
10678;DHT22;5387;48.722;9.110;2024-03-23T15:23:58;4.40;99.90
10678;DHT22;5387;48.722;9.110;2024-03-23T15:26:25;4.50;99.90
10678;DHT22;5387;48.722;9.110;2024-03-23T15:28:50;4.70;99.90
10678;DHT22;5387;48.722;9.110;2024-03-23T15:31:36;5.00;99.90
10678;DHT22;5387;48.722;9.110;2024-03-23T15:34:02;5.10;99.90
10678;DHT22;5387;48.722;9.110;2024-03-23T15:36:29;5.40;99.90
10678;DHT22;5387;48.722;9.110;2024-03-23T15:38:56;5.30;99.90
10678;DHT22;5387;48.722;9.110;2024-03-23T15:41:23;5.20;99.90
10678;DHT22;5387;48.722;9.110;2024-03-23T15:43:49;5.40;99.90
10678;DHT22;5387;48.722;9.110;2024-03-23T15:46:16;5.40;99.90
10678;DHT22;5387;48.722;9.110;2024-03-23T15:48:44;5.50;99.90
10678;DHT22;5387;48.722;9.110;2024-03-23T15:51:13;5.50;99.90
10678;DHT22;5387;48.722;9.110;2024-03-23T15:53:39;5.50;99.90
10678;DHT22;5387;48.722;9.110;2024-03-23T15:56:07;5.50;99.90
10678;DHT22;5387;48.722;9.110;2024-03-23T15:58:33;5.50;99.90
10678;DHT22;5387;48.722;9.110;2024-03-23T16:01:02;5.50;99.90
10678;DHT22;5387;48.722;9.110;2024-03-23T16:03:28;5.60;99.90
10678;DHT22;5387;48.722;9.110;2024-03-23T16:05:56;5.70;99.90
10678;DHT22;5387;48.722;9.110;2024-03-23T16:08:22;5.50;99.90
10678;DHT22;5387;48.722;9.110;2024-03-23T16:10:49;5.40;99.90
10678;DHT22;5387;48.722;9.110;2024-03-23T16:13:17;5.40;99.90
10678;DHT22;5387;48.722;9.110;2024-03-23T16:15:44;5.40;99.90
10678;DHT22;5387;48.722;9.110;2024-03-23T16:18:10;5.30;99.90
10678;DHT22;5387;48.722;9.110;2024-03-23T16:20:37;5.30;99.90
10678;DHT22;5387;48.722;9.110;2024-03-23T16:23:03;5.30;99.90
10678;DHT22;5387;48.722;9.110;2024-03-23T16:25:30;5.40;99.90
10678;DHT22;5387;48.722;9.110;2024-03-23T16:27:56;5.40;99.90
10678;DHT22;5387;48.722;9.110;2024-03-23T16:30:24;5.50;99.90
10678;DHT22;5387;48.722;9.110;2024-03-23T16:32:50;5.60;99.90
10678;DHT22;5387;48.722;9.110;2024-03-23T16:35:17;5.60;99.90
10678;DHT22;5387;48.722;9.110;2024-03-23T16:37:42;5.60;99.90
10678;DHT22;5387;48.722;9.110;2024-03-23T16:40:10;5.70;99.90
10678;DHT22;5387;48.722;9.110;2024-03-23T16:42:37;5.80;99.90
10678;DHT22;5387;48.722;9.110;2024-03-23T16:45:05;5.90;99.90
10678;DHT22;5387;48.722;9.110;2024-03-23T16:47:34;5.90;99.90
10678;DHT22;5387;48.722;9.110;2024-03-23T16:50:01;5.80;99.90
10678;DHT22;5387;48.722;9.110;2024-03-23T16:52:27;5.40;99.90